sensor_id;sensor_type;location;lat;lon;timestamp;P1;durP1;ratioP1;P2;durP2;ratioP2
55172;SDS011;41061;52.822;6.860;2022-08-02T00:01:24;4.47;;;1.90;;
55172;SDS011;41061;52.822;6.860;2022-08-02T00:03:50;7.57;;;1.92;;
55172;SDS011;41061;52.822;6.860;2022-08-02T00:06:15;6.20;;;1.80;;
55172;SDS011;41061;52.822;6.860;2022-08-02T00:08:41;5.78;;;1.90;;
55172;SDS011;41061;52.822;6.860;2022-08-02T00:11:07;6.40;;;2.20;;
55172;SDS011;41061;52.822;6.860;2022-08-02T00:13:32;3.85;;;2.05;;
55172;SDS011;41061;52.822;6.860;2022-08-02T00:15:58;4.82;;;2.03;;
55172;SDS011;41061;52.822;6.860;2022-08-02T00:18:23;7.18;;;1.90;;
55172;SDS011;41061;52.822;6.860;2022-08-02T00:20:49;7.47;;;2.42;;
55172;SDS011;41061;52.822;6.860;2022-08-02T00:23:15;5.60;;;2.45;;
55172;SDS011;41061;52.822;6.860;2022-08-02T00:25:41;8.05;;;2.08;;
55172;SDS011;41061;52.822;6.860;2022-08-02T00:28:06;7.05;;;2.10;;
55172;SDS011;41061;52.822;6.860;2022-08-02T00:30:32;4.90;;;2.10;;
55172;SDS011;41061;52.822;6.860;2022-08-02T00:32:58;5.95;;;2.17;;
55172;SDS011;41061;52.822;6.860;2022-08-02T00:35:23;6.85;;;2.30;;
55172;SDS011;41061;52.822;6.860;2022-08-02T00:37:49;8.68;;;2.40;;
55172;SDS011;41061;52.822;6.860;2022-08-02T00:40:15;7.00;;;2.63;;
55172;SDS011;41061;52.822;6.860;2022-08-02T00:42:47;8.40;;;2.95;;
55172;SDS011;41061;52.822;6.860;2022-08-02T00:45:26;4.97;;;2.20;;
55172;SDS011;41061;52.822;6.860;2022-08-02T00:47:51;8.40;;;2.42;;
55172;SDS011;41061;52.822;6.860;2022-08-02T00:50:17;5.47;;;1.70;;
55172;SDS011;41061;52.822;6.860;2022-08-02T00:52:42;5.85;;;1.63;;
55172;SDS011;41061;52.822;6.860;2022-08-02T00:55:08;5.95;;;2.25;;
55172;SDS011;41061;52.822;6.860;2022-08-02T00:57:34;6.25;;;1.80;;
55172;SDS011;41061;52.822;6.860;2022-08-02T00:59:59;5.65;;;1.95;;
55172;SDS011;41061;52.822;6.860;2022-08-02T01:02:25;5.53;;;1.98;;
55172;SDS011;41061;52.822;6.860;2022-08-02T01:04:50;3.63;;;1.65;;
55172;SDS011;41061;52.822;6.860;2022-08-02T01:07:16;7.38;;;2.38;;
55172;SDS011;41061;52.822;6.860;2022-08-02T01:09:42;4.53;;;2.05;;
55172;SDS011;41061;52.822;6.860;2022-08-02T01:12:09;5.68;;;1.92;;
55172;SDS011;41061;52.822;6.860;2022-08-02T01:14:36;7.85;;;1.98;;
55172;SDS011;41061;52.822;6.860;2022-08-02T01:19:42;4.55;;;2.10;;
55172;SDS011;41061;52.822;6.860;2022-08-02T01:30:46;7.28;;;2.30;;
55172;SDS011;41061;52.822;6.860;2022-08-02T01:33:17;6.15;;;2.60;;
55172;SDS011;41061;52.822;6.860;2022-08-02T01:35:46;7.25;;;2.50;;
55172;SDS011;41061;52.822;6.860;2022-08-02T01:38:34;6.20;;;2.83;;
55172;SDS011;41061;52.822;6.860;2022-08-02T01:41:04;7.78;;;2.10;;
55172;SDS011;41061;52.822;6.860;2022-08-02T01:43:33;4.65;;;1.98;;
55172;SDS011;41061;52.822;6.860;2022-08-02T01:46:02;5.68;;;2.10;;
55172;SDS011;41061;52.822;6.860;2022-08-02T01:48:29;7.70;;;2.28;;
55172;SDS011;41061;52.822;6.860;2022-08-02T01:50:57;6.85;;;2.53;;
55172;SDS011;41061;52.822;6.860;2022-08-02T01:53:24;10.00;;;2.63;;
55172;SDS011;41061;52.822;6.860;2022-08-02T01:55:52;5.72;;;2.03;;
55172;SDS011;41061;52.822;6.860;2022-08-02T01:58:21;10.63;;;2.40;;
55172;SDS011;41061;52.822;6.860;2022-08-02T02:00:50;8.00;;;2.35;;
55172;SDS011;41061;52.822;6.860;2022-08-02T02:03:20;8.70;;;2.45;;
55172;SDS011;41061;52.822;6.860;2022-08-02T02:05:47;7.13;;;2.38;;
55172;SDS011;41061;52.822;6.860;2022-08-02T02:08:16;10.75;;;2.80;;
55172;SDS011;41061;52.822;6.860;2022-08-02T02:10:47;8.85;;;2.35;;
55172;SDS011;41061;52.822;6.860;2022-08-02T02:13:16;7.28;;;2.53;;
55172;SDS011;41061;52.822;6.860;2022-08-02T02:15:44;9.80;;;2.25;;
55172;SDS011;41061;52.822;6.860;2022-08-02T02:18:13;11.57;;;3.33;;
55172;SDS011;41061;52.822;6.860;2022-08-02T02:20:42;7.80;;;2.25;;
55172;SDS011;41061;52.822;6.860;2022-08-02T02:23:09;9.70;;;2.78;;
55172;SDS011;41061;52.822;6.860;2022-08-02T02:25:36;8.27;;;2.78;;
55172;SDS011;41061;52.822;6.860;2022-08-02T02:28:05;7.03;;;2.45;;
55172;SDS011;41061;52.822;6.860;2022-08-02T02:30:40;9.43;;;2.35;;
55172;SDS011;41061;52.822;6.860;2022-08-02T02:33:11;8.18;;;2.63;;
55172;SDS011;41061;52.822;6.860;2022-08-02T02:35:41;12.00;;;2.90;;
55172;SDS011;41061;52.822;6.860;2022-08-02T02:38:10;13.07;;;2.55;;
55172;SDS011;41061;52.822;6.860;2022-08-02T02:40:38;13.88;;;2.65;;
55172;SDS011;41061;52.822;6.860;2022-08-02T02:43:05;7.07;;;2.60;;
55172;SDS011;41061;52.822;6.860;2022-08-02T02:45:33;9.38;;;2.95;;
55172;SDS011;41061;52.822;6.860;2022-08-02T02:48:02;8.13;;;2.22;;
55172;SDS011;41061;52.822;6.860;2022-08-02T02:50:29;9.65;;;2.47;;
55172;SDS011;41061;52.822;6.860;2022-08-02T02:52:54;8.32;;;2.60;;
55172;SDS011;41061;52.822;6.860;2022-08-02T02:55:22;7.93;;;3.25;;
55172;SDS011;41061;52.822;6.860;2022-08-02T02:57:49;10.65;;;2.83;;
55172;SDS011;41061;52.822;6.860;2022-08-02T03:00:15;9.55;;;2.47;;
55172;SDS011;41061;52.822;6.860;2022-08-02T03:02:42;8.25;;;2.70;;
55172;SDS011;41061;52.822;6.860;2022-08-02T03:05:09;6.32;;;2.65;;
55172;SDS011;41061;52.822;6.860;2022-08-02T03:07:36;9.60;;;2.55;;
55172;SDS011;41061;52.822;6.860;2022-08-02T03:10:03;8.93;;;2.97;;
55172;SDS011;41061;52.822;6.860;2022-08-02T03:12:30;10.77;;;3.00;;
55172;SDS011;41061;52.822;6.860;2022-08-02T03:14:58;9.70;;;3.05;;
55172;SDS011;41061;52.822;6.860;2022-08-02T03:17:24;9.57;;;2.83;;
55172;SDS011;41061;52.822;6.860;2022-08-02T03:19:50;7.95;;;2.83;;
55172;SDS011;41061;52.822;6.860;2022-08-02T03:22:16;9.30;;;3.88;;
55172;SDS011;41061;52.822;6.860;2022-08-02T03:24:41;9.27;;;3.22;;
55172;SDS011;41061;52.822;6.860;2022-08-02T03:27:07;9.23;;;3.10;;
55172;SDS011;41061;52.822;6.860;2022-08-02T03:29:33;8.63;;;3.67;;
55172;SDS011;41061;52.822;6.860;2022-08-02T03:31:58;10.02;;;3.60;;
55172;SDS011;41061;52.822;6.860;2022-08-02T03:34:24;10.60;;;3.03;;
55172;SDS011;41061;52.822;6.860;2022-08-02T03:36:51;12.50;;;3.65;;
55172;SDS011;41061;52.822;6.860;2022-08-02T03:39:20;11.98;;;3.40;;
55172;SDS011;41061;52.822;6.860;2022-08-02T03:41:47;6.05;;;3.33;;
55172;SDS011;41061;52.822;6.860;2022-08-02T03:44:13;7.45;;;2.92;;
55172;SDS011;41061;52.822;6.860;2022-08-02T03:46:40;7.22;;;3.90;;
55172;SDS011;41061;52.822;6.860;2022-08-02T03:49:07;12.82;;;3.90;;
55172;SDS011;41061;52.822;6.860;2022-08-02T03:51:34;9.93;;;3.65;;
55172;SDS011;41061;52.822;6.860;2022-08-02T03:54:01;11.20;;;3.67;;
55172;SDS011;41061;52.822;6.860;2022-08-02T03:56:28;10.57;;;4.20;;
55172;SDS011;41061;52.822;6.860;2022-08-02T04:01:33;9.80;;;4.18;;
55172;SDS011;41061;52.822;6.860;2022-08-02T04:03:58;14.88;;;3.85;;
55172;SDS011;41061;52.822;6.860;2022-08-02T04:06:24;8.10;;;3.72;;
55172;SDS011;41061;52.822;6.860;2022-08-02T04:08:50;8.82;;;4.13;;
55172;SDS011;41061;52.822;6.860;2022-08-02T04:11:17;9.50;;;3.65;;
55172;SDS011;41061;52.822;6.860;2022-08-02T04:13:55;11.82;;;4.55;;
55172;SDS011;41061;52.822;6.860;2022-08-02T04:16:22;8.73;;;3.95;;
55172;SDS011;41061;52.822;6.860;2022-08-02T04:19:20;9.10;;;3.35;;
55172;SDS011;41061;52.822;6.860;2022-08-02T04:22:05;13.70;;;4.68;;
55172;SDS011;41061;52.822;6.860;2022-08-02T04:24:38;10.30;;;3.65;;
55172;SDS011;41061;52.822;6.860;2022-08-02T04:27:08;7.82;;;4.13;;
55172;SDS011;41061;52.822;6.860;2022-08-02T04:29:34;8.57;;;3.67;;
55172;SDS011;41061;52.822;6.860;2022-08-02T04:32:02;13.98;;;4.00;;
55172;SDS011;41061;52.822;6.860;2022-08-02T04:34:29;16.73;;;5.00;;
55172;SDS011;41061;52.822;6.860;2022-08-02T04:36:55;8.82;;;4.38;;
55172;SDS011;41061;52.822;6.860;2022-08-02T04:39:22;11.95;;;4.80;;
55172;SDS011;41061;52.822;6.860;2022-08-02T04:41:48;8.02;;;4.07;;
55172;SDS011;41061;52.822;6.860;2022-08-02T04:44:14;8.20;;;4.68;;
55172;SDS011;41061;52.822;6.860;2022-08-02T04:46:40;17.15;;;5.15;;
55172;SDS011;41061;52.822;6.860;2022-08-02T04:49:08;12.68;;;4.45;;
55172;SDS011;41061;52.822;6.860;2022-08-02T04:51:37;12.18;;;4.30;;
55172;SDS011;41061;52.822;6.860;2022-08-02T04:54:05;11.70;;;4.10;;
55172;SDS011;41061;52.822;6.860;2022-08-02T04:56:32;11.65;;;4.85;;
55172;SDS011;41061;52.822;6.860;2022-08-02T04:58:57;13.23;;;4.95;;
55172;SDS011;41061;52.822;6.860;2022-08-02T05:01:23;11.02;;;4.30;;
55172;SDS011;41061;52.822;6.860;2022-08-02T05:03:48;21.20;;;5.00;;
55172;SDS011;41061;52.822;6.860;2022-08-02T05:06:14;13.80;;;4.75;;
55172;SDS011;41061;52.822;6.860;2022-08-02T05:08:40;12.30;;;4.32;;
55172;SDS011;41061;52.822;6.860;2022-08-02T05:11:06;14.38;;;5.15;;
55172;SDS011;41061;52.822;6.860;2022-08-02T05:13:32;16.30;;;4.75;;
55172;SDS011;41061;52.822;6.860;2022-08-02T05:15:57;9.98;;;4.80;;
55172;SDS011;41061;52.822;6.860;2022-08-02T05:18:25;15.02;;;5.00;;
55172;SDS011;41061;52.822;6.860;2022-08-02T05:20:52;16.13;;;5.00;;
55172;SDS011;41061;52.822;6.860;2022-08-02T05:23:18;14.32;;;4.82;;
55172;SDS011;41061;52.822;6.860;2022-08-02T05:25:44;10.85;;;4.93;;
55172;SDS011;41061;52.822;6.860;2022-08-02T05:28:10;13.55;;;4.82;;
55172;SDS011;41061;52.822;6.860;2022-08-02T05:30:36;14.93;;;5.50;;
55172;SDS011;41061;52.822;6.860;2022-08-02T05:33:02;11.85;;;4.57;;
55172;SDS011;41061;52.822;6.860;2022-08-02T05:35:28;10.13;;;4.68;;
55172;SDS011;41061;52.822;6.860;2022-08-02T05:37:54;9.98;;;4.78;;
55172;SDS011;41061;52.822;6.860;2022-08-02T05:40:20;13.25;;;4.70;;
55172;SDS011;41061;52.822;6.860;2022-08-02T05:42:46;11.13;;;5.32;;
55172;SDS011;41061;52.822;6.860;2022-08-02T05:45:12;12.40;;;5.30;;
55172;SDS011;41061;52.822;6.860;2022-08-02T05:47:38;13.88;;;4.82;;
55172;SDS011;41061;52.822;6.860;2022-08-02T05:50:07;17.73;;;4.70;;
55172;SDS011;41061;52.822;6.860;2022-08-02T05:52:56;8.75;;;4.82;;
55172;SDS011;41061;52.822;6.860;2022-08-02T05:55:39;10.40;;;4.70;;
55172;SDS011;41061;52.822;6.860;2022-08-02T05:58:12;15.18;;;4.57;;
55172;SDS011;41061;52.822;6.860;2022-08-02T06:00:44;11.23;;;5.30;;
55172;SDS011;41061;52.822;6.860;2022-08-02T06:08:23;10.63;;;4.47;;
55172;SDS011;41061;52.822;6.860;2022-08-02T06:10:56;9.63;;;4.35;;
55172;SDS011;41061;52.822;6.860;2022-08-02T06:13:25;11.23;;;4.47;;
55172;SDS011;41061;52.822;6.860;2022-08-02T06:15:51;15.68;;;3.85;;
55172;SDS011;41061;52.822;6.860;2022-08-02T06:18:17;10.32;;;3.65;;
55172;SDS011;41061;52.822;6.860;2022-08-02T06:20:44;11.68;;;3.58;;
55172;SDS011;41061;52.822;6.860;2022-08-02T06:23:14;8.98;;;3.42;;
55172;SDS011;41061;52.822;6.860;2022-08-02T06:25:44;7.32;;;3.03;;
55172;SDS011;41061;52.822;6.860;2022-08-02T06:28:11;13.32;;;3.30;;
55172;SDS011;41061;52.822;6.860;2022-08-02T06:30:40;8.88;;;3.08;;
55172;SDS011;41061;52.822;6.860;2022-08-02T06:33:07;11.70;;;3.60;;
55172;SDS011;41061;52.822;6.860;2022-08-02T06:35:55;12.43;;;3.75;;
55172;SDS011;41061;52.822;6.860;2022-08-02T06:38:42;6.68;;;2.80;;
55172;SDS011;41061;52.822;6.860;2022-08-02T06:41:13;9.02;;;3.00;;
55172;SDS011;41061;52.822;6.860;2022-08-02T06:43:52;8.43;;;3.78;;
55172;SDS011;41061;52.822;6.860;2022-08-02T06:46:28;10.68;;;3.30;;
55172;SDS011;41061;52.822;6.860;2022-08-02T06:48:54;7.28;;;3.15;;
55172;SDS011;41061;52.822;6.860;2022-08-02T06:51:21;7.45;;;3.20;;
55172;SDS011;41061;52.822;6.860;2022-08-02T06:53:47;7.72;;;3.00;;
55172;SDS011;41061;52.822;6.860;2022-08-02T06:56:13;10.48;;;3.53;;
55172;SDS011;41061;52.822;6.860;2022-08-02T06:58:39;7.40;;;3.13;;
55172;SDS011;41061;52.822;6.860;2022-08-02T07:01:05;6.03;;;2.97;;
55172;SDS011;41061;52.822;6.860;2022-08-02T07:03:35;9.02;;;2.90;;
55172;SDS011;41061;52.822;6.860;2022-08-02T07:06:02;10.13;;;3.40;;
55172;SDS011;41061;52.822;6.860;2022-08-02T07:08:28;9.20;;;2.90;;
55172;SDS011;41061;52.822;6.860;2022-08-02T07:11:00;11.98;;;3.20;;
55172;SDS011;41061;52.822;6.860;2022-08-02T07:13:27;15.30;;;3.15;;
55172;SDS011;41061;52.822;6.860;2022-08-02T07:15:53;9.50;;;2.80;;
55172;SDS011;41061;52.822;6.860;2022-08-02T07:18:19;8.25;;;2.72;;
55172;SDS011;41061;52.822;6.860;2022-08-02T07:20:45;11.75;;;3.22;;
55172;SDS011;41061;52.822;6.860;2022-08-02T07:23:11;8.52;;;2.55;;
55172;SDS011;41061;52.822;6.860;2022-08-02T07:25:37;12.07;;;2.90;;
55172;SDS011;41061;52.822;6.860;2022-08-02T07:28:03;6.90;;;2.70;;
55172;SDS011;41061;52.822;6.860;2022-08-02T07:30:30;9.60;;;2.28;;
55172;SDS011;41061;52.822;6.860;2022-08-02T07:33:00;8.75;;;2.47;;
55172;SDS011;41061;52.822;6.860;2022-08-02T07:35:26;8.85;;;2.80;;
55172;SDS011;41061;52.822;6.860;2022-08-02T07:37:52;8.35;;;2.47;;
55172;SDS011;41061;52.822;6.860;2022-08-02T07:40:18;4.07;;;1.70;;
55172;SDS011;41061;52.822;6.860;2022-08-02T07:42:45;6.90;;;1.50;;
55172;SDS011;41061;52.822;6.860;2022-08-02T07:45:12;8.00;;;2.00;;
55172;SDS011;41061;52.822;6.860;2022-08-02T07:47:38;6.60;;;1.90;;
55172;SDS011;41061;52.822;6.860;2022-08-02T07:50:05;5.97;;;1.55;;
55172;SDS011;41061;52.822;6.860;2022-08-02T07:52:32;5.50;;;2.03;;
55172;SDS011;41061;52.822;6.860;2022-08-02T07:54:58;6.13;;;2.17;;
55172;SDS011;41061;52.822;6.860;2022-08-02T07:57:23;4.85;;;1.55;;
55172;SDS011;41061;52.822;6.860;2022-08-02T07:59:49;6.53;;;1.70;;
55172;SDS011;41061;52.822;6.860;2022-08-02T08:02:16;8.00;;;2.20;;
55172;SDS011;41061;52.822;6.860;2022-08-02T08:04:42;5.70;;;1.80;;
55172;SDS011;41061;52.822;6.860;2022-08-02T08:07:07;6.10;;;1.60;;
55172;SDS011;41061;52.822;6.860;2022-08-02T08:09:35;3.78;;;1.25;;
55172;SDS011;41061;52.822;6.860;2022-08-02T08:12:06;7.97;;;2.25;;
55172;SDS011;41061;52.822;6.860;2022-08-02T08:14:33;6.70;;;1.30;;
55172;SDS011;41061;52.822;6.860;2022-08-02T08:16:58;3.72;;;1.40;;
55172;SDS011;41061;52.822;6.860;2022-08-02T08:19:24;5.28;;;1.65;;
55172;SDS011;41061;52.822;6.860;2022-08-02T08:21:50;4.45;;;1.25;;
55172;SDS011;41061;52.822;6.860;2022-08-02T08:24:16;5.63;;;1.20;;
55172;SDS011;41061;52.822;6.860;2022-08-02T08:26:42;5.53;;;1.50;;
55172;SDS011;41061;52.822;6.860;2022-08-02T08:29:07;6.32;;;1.90;;
55172;SDS011;41061;52.822;6.860;2022-08-02T08:31:33;7.10;;;1.70;;
55172;SDS011;41061;52.822;6.860;2022-08-02T08:33:59;6.15;;;1.48;;
55172;SDS011;41061;52.822;6.860;2022-08-02T08:36:26;6.32;;;1.20;;
55172;SDS011;41061;52.822;6.860;2022-08-02T08:38:52;3.95;;;1.30;;
55172;SDS011;41061;52.822;6.860;2022-08-02T08:41:18;4.20;;;1.52;;
55172;SDS011;41061;52.822;6.860;2022-08-02T08:43:45;5.55;;;1.05;;
55172;SDS011;41061;52.822;6.860;2022-08-02T08:46:17;6.03;;;1.58;;
55172;SDS011;41061;52.822;6.860;2022-08-02T08:48:49;5.50;;;1.00;;
55172;SDS011;41061;52.822;6.860;2022-08-02T08:51:18;5.47;;;1.10;;
55172;SDS011;41061;52.822;6.860;2022-08-02T08:53:47;5.68;;;1.27;;
55172;SDS011;41061;52.822;6.860;2022-08-02T08:56:14;2.88;;;0.88;;
55172;SDS011;41061;52.822;6.860;2022-08-02T08:58:41;2.97;;;1.05;;
55172;SDS011;41061;52.822;6.860;2022-08-02T09:01:08;3.40;;;1.10;;
55172;SDS011;41061;52.822;6.860;2022-08-02T09:03:37;6.72;;;1.17;;
55172;SDS011;41061;52.822;6.860;2022-08-02T09:06:02;5.40;;;1.15;;
55172;SDS011;41061;52.822;6.860;2022-08-02T09:08:29;4.60;;;1.35;;
55172;SDS011;41061;52.822;6.860;2022-08-02T09:10:56;3.67;;;1.10;;
55172;SDS011;41061;52.822;6.860;2022-08-02T09:13:25;4.82;;;1.27;;
55172;SDS011;41061;52.822;6.860;2022-08-02T09:15:59;3.80;;;1.02;;
55172;SDS011;41061;52.822;6.860;2022-08-02T09:18:33;2.22;;;0.85;;
55172;SDS011;41061;52.822;6.860;2022-08-02T09:21:07;3.60;;;1.20;;
55172;SDS011;41061;52.822;6.860;2022-08-02T09:23:34;5.25;;;1.38;;
55172;SDS011;41061;52.822;6.860;2022-08-02T09:26:03;4.90;;;1.25;;
55172;SDS011;41061;52.822;6.860;2022-08-02T09:28:31;2.75;;;0.85;;
55172;SDS011;41061;52.822;6.860;2022-08-02T09:31:03;2.88;;;0.95;;
55172;SDS011;41061;52.822;6.860;2022-08-02T09:33:30;1.77;;;1.00;;
55172;SDS011;41061;52.822;6.860;2022-08-02T09:36:00;7.40;;;1.67;;
55172;SDS011;41061;52.822;6.860;2022-08-02T09:38:31;6.72;;;1.40;;
55172;SDS011;41061;52.822;6.860;2022-08-02T09:40:58;2.15;;;0.98;;
55172;SDS011;41061;52.822;6.860;2022-08-02T09:43:37;1.85;;;0.90;;
55172;SDS011;41061;52.822;6.860;2022-08-02T09:48:53;5.85;;;1.20;;
55172;SDS011;41061;52.822;6.860;2022-08-02T09:53:52;2.45;;;1.27;;
55172;SDS011;41061;52.822;6.860;2022-08-02T09:56:19;4.63;;;1.65;;
55172;SDS011;41061;52.822;6.860;2022-08-02T09:58:46;3.35;;;1.27;;
55172;SDS011;41061;52.822;6.860;2022-08-02T10:01:12;4.60;;;1.23;;
55172;SDS011;41061;52.822;6.860;2022-08-02T10:03:51;3.83;;;1.05;;
55172;SDS011;41061;52.822;6.860;2022-08-02T10:06:22;4.43;;;1.60;;
55172;SDS011;41061;52.822;6.860;2022-08-02T10:08:48;2.72;;;1.38;;
55172;SDS011;41061;52.822;6.860;2022-08-02T10:11:15;4.22;;;1.45;;
55172;SDS011;41061;52.822;6.860;2022-08-02T10:13:41;3.45;;;1.40;;
55172;SDS011;41061;52.822;6.860;2022-08-02T10:16:07;4.95;;;1.52;;
55172;SDS011;41061;52.822;6.860;2022-08-02T10:18:34;5.18;;;1.50;;
55172;SDS011;41061;52.822;6.860;2022-08-02T10:21:02;4.05;;;1.50;;
55172;SDS011;41061;52.822;6.860;2022-08-02T10:23:32;6.00;;;1.38;;
55172;SDS011;41061;52.822;6.860;2022-08-02T10:26:00;8.15;;;1.77;;
55172;SDS011;41061;52.822;6.860;2022-08-02T10:28:28;4.47;;;2.10;;
55172;SDS011;41061;52.822;6.860;2022-08-02T10:30:57;6.53;;;1.83;;
55172;SDS011;41061;52.822;6.860;2022-08-02T10:33:25;5.78;;;1.80;;
55172;SDS011;41061;52.822;6.860;2022-08-02T10:35:53;5.28;;;1.75;;
55172;SDS011;41061;52.822;6.860;2022-08-02T10:38:23;5.07;;;1.65;;
55172;SDS011;41061;52.822;6.860;2022-08-02T10:40:53;2.90;;;1.67;;
55172;SDS011;41061;52.822;6.860;2022-08-02T10:49:00;4.75;;;2.05;;
55172;SDS011;41061;52.822;6.860;2022-08-02T10:54:25;8.05;;;2.17;;
55172;SDS011;41061;52.822;6.860;2022-08-02T10:56:53;4.97;;;2.90;;
55172;SDS011;41061;52.822;6.860;2022-08-02T10:59:31;6.25;;;2.08;;
55172;SDS011;41061;52.822;6.860;2022-08-02T11:02:00;8.63;;;2.60;;
55172;SDS011;41061;52.822;6.860;2022-08-02T11:04:59;6.45;;;2.28;;
55172;SDS011;41061;52.822;6.860;2022-08-02T11:07:30;8.85;;;2.47;;
55172;SDS011;41061;52.822;6.860;2022-08-02T11:12:57;6.57;;;2.05;;
55172;SDS011;41061;52.822;6.860;2022-08-02T11:18:13;4.85;;;2.30;;
55172;SDS011;41061;52.822;6.860;2022-08-02T11:20:42;8.15;;;2.75;;
55172;SDS011;41061;52.822;6.860;2022-08-02T11:26:47;5.03;;;2.30;;
55172;SDS011;41061;52.822;6.860;2022-08-02T11:28:54;6.18;;;2.20;;
55172;SDS011;41061;52.822;6.860;2022-08-02T11:31:21;7.07;;;2.20;;
55172;SDS011;41061;52.822;6.860;2022-08-02T11:33:48;7.63;;;2.60;;
55172;SDS011;41061;52.822;6.860;2022-08-02T11:36:15;6.05;;;2.50;;
55172;SDS011;41061;52.822;6.860;2022-08-02T11:38:41;5.25;;;2.30;;
55172;SDS011;41061;52.822;6.860;2022-08-02T11:41:07;6.05;;;2.00;;
55172;SDS011;41061;52.822;6.860;2022-08-02T11:43:33;5.45;;;2.42;;
55172;SDS011;41061;52.822;6.860;2022-08-02T11:46:03;6.03;;;2.20;;
55172;SDS011;41061;52.822;6.860;2022-08-02T11:48:38;4.13;;;2.10;;
55172;SDS011;41061;52.822;6.860;2022-08-02T11:51:08;2.97;;;1.85;;
55172;SDS011;41061;52.822;6.860;2022-08-02T11:53:43;2.47;;;1.60;;
55172;SDS011;41061;52.822;6.860;2022-08-02T11:56:17;6.10;;;1.70;;
55172;SDS011;41061;52.822;6.860;2022-08-02T12:01:45;3.35;;;1.50;;
55172;SDS011;41061;52.822;6.860;2022-08-02T12:04:10;2.88;;;1.70;;
55172;SDS011;41061;52.822;6.860;2022-08-02T12:06:40;2.53;;;1.40;;
55172;SDS011;41061;52.822;6.860;2022-08-02T12:09:06;2.20;;;1.50;;
55172;SDS011;41061;52.822;6.860;2022-08-02T12:11:33;3.85;;;1.80;;
55172;SDS011;41061;52.822;6.860;2022-08-02T12:14:03;3.30;;;1.90;;
55172;SDS011;41061;52.822;6.860;2022-08-02T12:16:36;3.78;;;1.58;;
55172;SDS011;41061;52.822;6.860;2022-08-02T12:19:22;2.90;;;1.77;;
55172;SDS011;41061;52.822;6.860;2022-08-02T12:22:05;2.45;;;1.38;;
55172;SDS011;41061;52.822;6.860;2022-08-02T12:24:32;2.85;;;1.58;;
55172;SDS011;41061;52.822;6.860;2022-08-02T12:26:58;2.53;;;1.10;;
55172;SDS011;41061;52.822;6.860;2022-08-02T12:29:30;5.25;;;1.50;;
55172;SDS011;41061;52.822;6.860;2022-08-02T12:31:58;1.30;;;1.08;;
55172;SDS011;41061;52.822;6.860;2022-08-02T12:34:25;2.40;;;1.20;;
55172;SDS011;41061;52.822;6.860;2022-08-02T12:37:02;5.60;;;1.60;;
55172;SDS011;41061;52.822;6.860;2022-08-02T12:39:37;3.38;;;1.38;;
55172;SDS011;41061;52.822;6.860;2022-08-02T12:42:06;2.67;;;1.30;;
55172;SDS011;41061;52.822;6.860;2022-08-02T12:44:34;2.35;;;1.40;;
55172;SDS011;41061;52.822;6.860;2022-08-02T12:47:03;4.32;;;1.48;;
55172;SDS011;41061;52.822;6.860;2022-08-02T12:49:33;2.85;;;1.40;;
55172;SDS011;41061;52.822;6.860;2022-08-02T12:52:17;3.88;;;1.50;;
55172;SDS011;41061;52.822;6.860;2022-08-02T12:54:46;2.55;;;1.40;;
55172;SDS011;41061;52.822;6.860;2022-08-02T12:57:14;4.03;;;1.40;;
55172;SDS011;41061;52.822;6.860;2022-08-02T12:59:41;2.13;;;1.15;;
55172;SDS011;41061;52.822;6.860;2022-08-02T13:02:12;3.70;;;1.58;;
55172;SDS011;41061;52.822;6.860;2022-08-02T13:04:40;2.00;;;1.30;;
55172;SDS011;41061;52.822;6.860;2022-08-02T13:07:06;5.65;;;1.45;;
55172;SDS011;41061;52.822;6.860;2022-08-02T13:09:36;5.80;;;1.50;;
55172;SDS011;41061;52.822;6.860;2022-08-02T13:12:03;2.28;;;2.03;;
55172;SDS011;41061;52.822;6.860;2022-08-02T13:14:30;4.20;;;1.85;;
55172;SDS011;41061;52.822;6.860;2022-08-02T13:16:56;2.85;;;1.63;;
55172;SDS011;41061;52.822;6.860;2022-08-02T13:19:21;2.75;;;1.90;;
55172;SDS011;41061;52.822;6.860;2022-08-02T13:21:47;4.40;;;1.88;;
55172;SDS011;41061;52.822;6.860;2022-08-02T13:24:13;2.95;;;1.70;;
55172;SDS011;41061;52.822;6.860;2022-08-02T13:26:41;4.88;;;1.83;;
55172;SDS011;41061;52.822;6.860;2022-08-02T13:29:08;2.97;;;1.83;;
55172;SDS011;41061;52.822;6.860;2022-08-02T13:31:34;6.32;;;1.95;;
55172;SDS011;41061;52.822;6.860;2022-08-02T13:34:02;4.45;;;1.67;;
55172;SDS011;41061;52.822;6.860;2022-08-02T13:36:29;4.15;;;1.67;;
55172;SDS011;41061;52.822;6.860;2022-08-02T13:38:55;4.43;;;1.85;;
55172;SDS011;41061;52.822;6.860;2022-08-02T13:41:21;3.08;;;1.55;;
55172;SDS011;41061;52.822;6.860;2022-08-02T13:43:46;2.25;;;1.20;;
55172;SDS011;41061;52.822;6.860;2022-08-02T13:46:12;4.57;;;1.42;;
55172;SDS011;41061;52.822;6.860;2022-08-02T13:48:38;2.40;;;1.40;;
55172;SDS011;41061;52.822;6.860;2022-08-02T13:51:03;2.88;;;1.27;;
55172;SDS011;41061;52.822;6.860;2022-08-02T13:53:31;6.07;;;1.30;;
55172;SDS011;41061;52.822;6.860;2022-08-02T13:55:57;3.08;;;1.38;;
55172;SDS011;41061;52.822;6.860;2022-08-02T13:58:23;3.92;;;1.38;;
55172;SDS011;41061;52.822;6.860;2022-08-02T14:00:49;2.17;;;1.40;;
55172;SDS011;41061;52.822;6.860;2022-08-02T14:03:15;6.15;;;1.88;;
55172;SDS011;41061;52.822;6.860;2022-08-02T14:05:41;2.42;;;1.20;;
55172;SDS011;41061;52.822;6.860;2022-08-02T14:08:07;3.95;;;1.67;;
55172;SDS011;41061;52.822;6.860;2022-08-02T14:10:33;7.47;;;1.20;;
55172;SDS011;41061;52.822;6.860;2022-08-02T14:12:58;5.45;;;1.52;;
55172;SDS011;41061;52.822;6.860;2022-08-02T14:15:24;2.22;;;1.38;;
55172;SDS011;41061;52.822;6.860;2022-08-02T14:17:54;3.33;;;1.67;;
55172;SDS011;41061;52.822;6.860;2022-08-02T14:20:20;2.35;;;1.60;;
55172;SDS011;41061;52.822;6.860;2022-08-02T14:22:45;2.92;;;1.85;;
55172;SDS011;41061;52.822;6.860;2022-08-02T14:25:11;11.95;;;1.90;;
55172;SDS011;41061;52.822;6.860;2022-08-02T14:27:36;3.28;;;2.08;;
55172;SDS011;41061;52.822;6.860;2022-08-02T14:30:02;5.45;;;1.52;;
55172;SDS011;41061;52.822;6.860;2022-08-02T14:32:28;4.45;;;1.80;;
55172;SDS011;41061;52.822;6.860;2022-08-02T14:34:54;3.10;;;1.63;;
55172;SDS011;41061;52.822;6.860;2022-08-02T14:37:20;5.38;;;1.80;;
55172;SDS011;41061;52.822;6.860;2022-08-02T14:39:46;3.95;;;1.63;;
55172;SDS011;41061;52.822;6.860;2022-08-02T14:42:11;2.85;;;1.80;;
55172;SDS011;41061;52.822;6.860;2022-08-02T14:44:37;3.90;;;1.77;;
55172;SDS011;41061;52.822;6.860;2022-08-02T14:47:03;5.75;;;1.90;;
55172;SDS011;41061;52.822;6.860;2022-08-02T14:49:30;3.13;;;2.10;;
55172;SDS011;41061;52.822;6.860;2022-08-02T14:51:56;3.30;;;1.70;;
55172;SDS011;41061;52.822;6.860;2022-08-02T14:54:22;6.85;;;2.22;;
55172;SDS011;41061;52.822;6.860;2022-08-02T14:56:50;4.05;;;2.00;;
55172;SDS011;41061;52.822;6.860;2022-08-02T14:59:16;3.45;;;2.10;;
55172;SDS011;41061;52.822;6.860;2022-08-02T15:01:42;2.30;;;1.73;;
55172;SDS011;41061;52.822;6.860;2022-08-02T15:04:07;3.67;;;1.98;;
55172;SDS011;41061;52.822;6.860;2022-08-02T15:06:33;4.47;;;2.00;;
55172;SDS011;41061;52.822;6.860;2022-08-02T15:08:58;3.45;;;2.30;;
55172;SDS011;41061;52.822;6.860;2022-08-02T15:11:24;5.97;;;2.25;;
55172;SDS011;41061;52.822;6.860;2022-08-02T15:13:50;8.57;;;2.65;;
55172;SDS011;41061;52.822;6.860;2022-08-02T15:16:16;10.00;;;2.42;;
55172;SDS011;41061;52.822;6.860;2022-08-02T15:18:42;7.38;;;2.55;;
55172;SDS011;41061;52.822;6.860;2022-08-02T15:21:08;3.08;;;1.60;;
55172;SDS011;41061;52.822;6.860;2022-08-02T15:23:35;2.53;;;1.90;;
55172;SDS011;41061;52.822;6.860;2022-08-02T15:26:01;3.28;;;2.10;;
55172;SDS011;41061;52.822;6.860;2022-08-02T15:28:27;4.10;;;2.10;;
55172;SDS011;41061;52.822;6.860;2022-08-02T15:30:55;3.05;;;2.00;;
55172;SDS011;41061;52.822;6.860;2022-08-02T15:33:21;3.85;;;2.03;;
55172;SDS011;41061;52.822;6.860;2022-08-02T15:35:47;4.88;;;2.10;;